Time;durP1;ratioP1;P1;durP2;ratioP2;P2;SDS_P1;SDS_P2;PMS_P1;PMS_P2;Temp;Humidity;BMP_temperature;BMP_pressure;BME280_temperature;BME280_humidity;BME280_pressure;Samples;Min_cycle;Max_cycle;Signal;HPM_P1;HPM_P2
2022/10/20 00:00:15;;;;;;;8.48;4.20;;;;;;;8.48;87.06;101663.47;5004892;28;20022;-76
2022/10/20 00:02:41;;;;;;;8.75;4.55;;;;;;;8.49;86.91;101651.41;5002980;28;20026;-76
2022/10/20 00:05:06;;;;;;;6.57;4.25;;;;;;;8.48;87.09;101654.84;5002251;28;20033;-76
2022/10/20 00:07:31;;;;;;;7.57;4.80;;;;;;;8.47;87.18;101648.75;5010464;28;20033;-76
2022/10/20 00:09:57;;;;;;;6.50;4.35;;;;;;;8.45;87.18;101649.63;5001115;28;20383;-76
2022/10/20 00:12:22;;;;;;;8.07;4.22;;;;;;;8.46;87.11;101648.78;5003301;28;20022;-76
2022/10/20 00:14:47;;;;;;;9.82;4.65;;;;;;;8.43;87.36;101647.06;5003903;28;20034;-76
2022/10/20 00:17:13;;;;;;;7.68;4.20;;;;;;;8.43;87.28;101635.81;4980042;28;20435;-76
2022/10/20 00:19:38;;;;;;;8.32;4.50;;;;;;;8.42;87.24;101624.59;5004249;28;20025;-76
2022/10/20 00:22:03;;;;;;;7.57;4.22;;;;;;;8.40;87.55;101623.75;5001883;28;20079;-76
2022/10/20 00:24:28;;;;;;;8.63;4.30;;;;;;;8.41;86.91;101622.00;5001788;28;20037;-76
2022/10/20 00:26:54;;;;;;;10.10;4.38;;;;;;;8.38;87.53;101612.50;5007051;28;20026;-77
2022/10/20 00:29:19;;;;;;;7.38;4.22;;;;;;;8.38;87.77;101616.81;5005516;28;20048;-76
2022/10/20 00:31:44;;;;;;;7.40;4.47;;;;;;;8.37;87.58;101615.13;5007409;28;20033;-77
2022/10/20 00:34:10;;;;;;;7.90;4.57;;;;;;;8.36;87.68;101619.41;5008953;28;20424;-77
2022/10/20 00:36:36;;;;;;;6.18;4.10;;;;;;;8.35;87.88;101610.81;5013732;28;20029;-76
2022/10/20 00:39:03;;;;;;;9.27;4.88;;;;;;;8.35;87.84;101612.50;4992691;28;20036;-77
2022/10/20 00:41:30;;;;;;;8.15;4.68;;;;;;;8.36;87.99;101614.25;5010709;28;20021;-76
2022/10/20 00:43:58;;;;;;;7.15;4.47;;;;;;;8.34;87.93;101613.38;5013542;28;20029;-76
2022/10/20 00:46:46;;;;;;;9.38;4.78;;;;;;;8.34;87.98;101611.66;5012972;28;20033;-76
2022/10/20 00:49:24;;;;;;;8.20;4.70;;;;;;;8.35;87.86;101604.72;5011780;28;20042;-77
2022/10/20 00:51:53;;;;;;;8.77;4.72;;;;;;;8.33;87.96;101594.38;5006876;28;20107;-77
2022/10/20 00:54:24;;;;;;;7.57;4.70;;;;;;;8.33;87.89;101589.19;5013254;28;20025;-76
2022/10/20 00:56:51;;;;;;;11.23;4.70;;;;;;;8.32;87.99;101586.59;5013604;28;20232;-76
2022/10/20 00:59:20;;;;;;;8.00;5.03;;;;;;;8.30;88.07;101584.03;5012663;28;20025;-76
2022/10/20 01:01:45;;;;;;;7.28;4.38;;;;;;;8.29;88.02;101581.41;5011890;28;20022;-76
2022/10/20 01:04:11;;;;;;;7.70;4.50;;;;;;;8.29;87.86;101574.50;5013757;28;20429;-76
2022/10/20 01:06:37;;;;;;;7.60;4.63;;;;;;;8.27;88.23;101567.63;5012318;28;20014;-76
2022/10/20 01:09:04;;;;;;;8.07;4.97;;;;;;;8.26;88.06;101577.13;5013651;28;20084;-76
2022/10/20 01:11:58;;;;;;;10.00;4.97;;;;;;;8.25;88.17;101575.38;5012640;28;20032;-76
2022/10/20 01:14:59;;;;;;;9.65;4.70;;;;;;;8.25;87.74;101562.44;5015150;28;20100;-76
2022/10/20 01:17:42;;;;;;;7.57;4.50;;;;;;;8.23;87.83;101561.56;5012249;28;20524;-76
2022/10/20 01:20:22;;;;;;;9.13;4.80;;;;;;;8.21;87.90;101547.75;5015257;28;20032;-76
2022/10/20 01:23:17;;;;;;;10.15;5.00;;;;;;;8.18;87.98;101545.19;5010100;28;20034;-76
2022/10/20 01:26:07;;;;;;;7.28;4.75;;;;;;;8.18;87.96;101558.16;5008490;28;20029;-76
2022/10/20 01:28:41;;;;;;;7.47;4.47;;;;;;;8.16;88.13;101559.88;5011555;28;20069;-76
2022/10/20 01:31:25;;;;;;;10.80;4.95;;;;;;;8.14;88.15;101541.75;5013393;28;20369;-76
2022/10/20 01:34:00;;;;;;;6.97;4.50;;;;;;;8.13;88.15;101533.97;5010946;28;20396;-76
2022/10/20 01:36:40;;;;;;;7.47;4.80;;;;;;;8.12;88.17;101527.91;5009978;28;20132;-76
2022/10/20 01:39:12;;;;;;;8.95;4.70;;;;;;;8.09;88.11;101516.72;5018064;28;20033;-76
2022/10/20 01:41:45;;;;;;;8.32;5.07;;;;;;;8.06;88.21;101507.22;5012384;28;20876;-76
2022/10/20 01:44:13;;;;;;;8.45;4.68;;;;;;;8.04;88.38;101501.19;5025911;28;20036;-77
2022/10/20 01:46:41;;;;;;;7.68;4.78;;;;;;;8.03;88.35;101508.09;5017306;28;20046;-77
2022/10/20 01:49:08;;;;;;;8.35;4.90;;;;;;;8.03;88.23;101504.66;5015234;28;20159;-76
2022/10/20 01:51:33;;;;;;;9.82;5.78;;;;;;;8.01;88.55;101498.59;5015334;28;20115;-77
2022/10/20 01:53:59;;;;;;;9.18;5.10;;;;;;;8.00;88.61;101490.00;5011757;28;20072;-76
2022/10/20 01:56:40;;;;;;;9.18;5.10;;;;;;;8.01;88.60;101485.66;5008633;28;20037;-76
2022/10/20 01:59:18;;;;;;;;;;;;;;;8.02;87.46;101474.41;5014779;28;20030;-76
2022/10/20 02:02:19;;;;;;;10.30;4.82;;;;;;;7.97;88.49;101482.22;5013182;28;20304;-77
2022/10/20 02:04:59;;;;;;;8.80;5.00;;;;;;;7.98;88.60;101493.44;5016706;28;20477;-76
2022/10/20 02:07:29;;;;;;;9.10;5.22;;;;;;;7.97;88.83;101486.53;5012180;28;20034;-76
2022/10/20 02:10:04;;;;;;;8.32;5.10;;;;;;;7.97;88.97;101497.78;5013078;28;20026;-76
2022/10/20 02:12:34;;;;;;;11.02;5.97;;;;;;;7.99;89.07;101495.16;5017004;28;20029;-76
2022/10/20 02:15:01;;;;;;;8.65;5.35;;;;;;;7.99;89.26;101483.09;4991439;28;20033;-76
2022/10/20 02:17:27;;;;;;;8.75;5.00;;;;;;;8.00;89.15;101482.22;5008121;28;20030;-76
2022/10/20 02:19:54;;;;;;;8.00;5.40;;;;;;;8.00;89.32;101484.81;5013553;28;20045;-76
2022/10/20 02:22:21;;;;;;;9.23;5.32;;;;;;;8.01;89.19;101473.56;5015859;28;20456;-77
2022/10/20 02:24:47;;;;;;;8.18;5.03;;;;;;;8.03;89.03;101476.16;5010144;28;20057;-76
2022/10/20 02:27:23;;;;;;;8.98;5.85;;;;;;;8.01;89.27;101477.88;5010847;28;20057;-76
2022/10/20 02:29:56;;;;;;;9.80;6.05;;;;;;;8.01;89.37;101481.34;5012257;28;20176;-76
2022/10/20 02:32:23;;;;;;;9.45;5.60;;;;;;;8.04;89.27;101477.88;5011362;28;20033;-76
2022/10/20 02:34:49;;;;;;;7.57;5.15;;;;;;;8.04;89.49;101464.91;5010755;28;20393;-76
2022/10/20 02:37:14;;;;;;;10.63;5.88;;;;;;;8.04;89.47;101465.75;5010800;28;20034;-76
2022/10/20 02:39:39;;;;;;;8.70;5.80;;;;;;;8.04;89.44;101462.31;5009983;28;20485;-76
2022/10/20 02:42:05;;;;;;;9.75;6.03;;;;;;;8.04;89.20;101468.34;5010643;28;20041;-76
2022/10/20 02:44:30;;;;;;;9.50;6.00;;;;;;;8.05;89.53;101464.06;5012531;28;20037;-76
2022/10/20 02:46:55;;;;;;;12.15;6.10;;;;;;;8.05;89.61;101459.72;5013657;28;20057;-77
2022/10/20 02:49:21;;;;;;;11.98;6.10;;;;;;;8.05;89.60;101451.09;5018369;28;20449;-76
2022/10/20 02:51:46;;;;;;;11.30;5.88;;;;;;;8.04;90.13;101436.41;5018393;28;20106;-77
2022/10/20 02:54:11;;;;;;;10.95;6.05;;;;;;;8.02;89.82;101423.47;4994816;28;20034;-77
2022/10/20 02:56:37;;;;;;;12.02;6.18;;;;;;;8.01;89.71;101413.97;5013026;28;20029;-77
2022/10/20 02:59:02;;;;;;;10.70;5.75;;;;;;;7.98;89.63;101411.41;5013268;28;20044;-76
2022/10/20 03:01:27;;;;;;;9.15;5.97;;;;;;;7.98;89.63;101411.41;5015849;28;20132;-76
2022/10/20 03:03:57;;;;;;;9.30;5.88;;;;;;;7.99;89.78;101414.84;5011788;28;20041;-76
2022/10/20 03:06:22;;;;;;;9.15;5.82;;;;;;;7.97;90.03;101404.50;4994936;28;20018;-76
2022/10/20 03:08:48;;;;;;;8.93;5.85;;;;;;;7.96;90.00;101387.22;4986061;28;20109;-77
2022/10/20 03:11:13;;;;;;;11.20;6.22;;;;;;;7.96;90.31;101382.03;5010450;28;20037;-77
2022/10/20 03:13:38;;;;;;;9.55;5.97;;;;;;;7.97;90.13;101377.72;5010381;28;20030;-76
2022/10/20 03:16:04;;;;;;;9.93;6.28;;;;;;;7.97;90.46;101378.59;5010193;28;20029;-76
2022/10/20 03:18:29;;;;;;;11.88;6.30;;;;;;;8.00;90.37;101378.56;5011986;28;20108;-76
2022/10/20 03:20:54;;;;;;;11.05;6.47;;;;;;;8.00;90.48;101378.56;5011438;28;20112;-76
2022/10/20 03:23:20;;;;;;;10.40;6.20;;;;;;;8.01;90.67;101382.00;5011587;28;20079;-77
2022/10/20 03:25:46;;;;;;;9.85;6.38;;;;;;;8.02;90.89;101365.59;5009163;28;20100;-77
2022/10/20 03:28:12;;;;;;;10.55;6.13;;;;;;;8.01;90.76;101351.78;5011728;28;20481;-77
2022/10/20 03:30:37;;;;;;;10.98;6.38;;;;;;;8.02;90.85;101350.03;5010547;28;20477;-76
2022/10/20 03:33:03;;;;;;;10.95;6.55;;;;;;;8.03;90.95;101351.78;5010964;28;20025;-76
2022/10/20 03:35:28;;;;;;;10.90;6.03;;;;;;;8.02;90.97;101340.56;5009688;28;20061;-77
2022/10/20 03:37:53;;;;;;;13.15;6.53;;;;;;;8.05;91.02;101348.28;5011850;28;20068;-77
2022/10/20 03:40:18;;;;;;;12.25;6.10;;;;;;;8.07;91.39;101347.41;5010997;28;20037;-76
2022/10/20 03:42:44;;;;;;;10.65;6.50;;;;;;;8.09;91.43;101341.38;5011171;28;20041;-76
2022/10/20 03:45:09;;;;;;;8.98;6.10;;;;;;;8.09;91.24;101332.72;5012474;28;20045;-77
2022/10/20 03:47:35;;;;;;;13.32;6.47;;;;;;;8.11;91.11;101330.97;5012052;28;20494;-76
2022/10/20 03:50:00;;;;;;;10.98;6.60;;;;;;;8.12;91.38;101332.69;5010917;28;20033;-76
2022/10/20 03:52:25;;;;;;;13.82;7.10;;;;;;;8.14;91.55;101334.41;5011133;28;20069;-76
2022/10/20 03:54:51;;;;;;;10.18;6.60;;;;;;;8.15;91.69;101332.69;5012077;28;20091;-76
2022/10/20 03:57:16;;;;;;;10.13;6.13;;;;;;;8.16;91.59;101342.19;5015033;28;20026;-76
2022/10/20 03:59:41;;;;;;;11.55;6.60;;;;;;;8.18;91.71;101330.06;5010521;28;20034;-77
2022/10/20 04:02:06;;;;;;;12.20;6.32;;;;;;;8.20;91.78;101328.31;5015279;28;20069;-76
2022/10/20 04:04:32;;;;;;;10.63;6.47;;;;;;;8.22;91.78;101313.59;5012145;28;20370;-77
2022/10/20 04:06:57;;;;;;;11.20;7.15;;;;;;;8.23;91.83;101317.91;5014181;28;20390;-76
2022/10/20 04:09:22;;;;;;;10.38;6.10;;;;;;;8.25;91.90;101316.16;5010190;28;20033;-76
2022/10/20 04:11:48;;;;;;;11.50;6.85;;;;;;;8.27;91.98;101313.59;5017617;28;20036;-77
2022/10/20 04:14:13;;;;;;;12.10;6.72;;;;;;;8.28;92.05;101310.97;5014223;28;20105;-77
2022/10/20 04:16:38;;;;;;;10.45;6.53;;;;;;;8.29;92.21;101320.47;5014764;28;20389;-77
2022/10/20 04:19:04;;;;;;;10.05;6.47;;;;;;;8.31;92.04;101313.53;5015233;28;20366;-76
2022/10/20 04:21:29;;;;;;;11.20;6.80;;;;;;;8.32;92.14;101312.66;5014976;28;20112;-77
2022/10/20 04:23:54;;;;;;;11.10;6.22;;;;;;;8.33;92.11;101309.22;5014977;28;20056;-76
2022/10/20 04:26:19;;;;;;;12.70;7.22;;;;;;;8.34;92.13;101305.75;5013398;28;20427;-77
2022/10/20 04:28:45;;;;;;;12.27;6.57;;;;;;;8.35;92.12;101302.28;5011813;28;20042;-76
2022/10/20 04:31:10;;;;;;;11.73;6.55;;;;;;;8.38;92.22;101292.72;5014884;28;20056;-76
2022/10/20 04:33:35;;;;;;;11.45;6.97;;;;;;;8.39;92.17;101291.84;4996385;28;20029;-76
2022/10/20 04:36:06;;;;;;;12.23;6.90;;;;;;;8.41;92.29;101274.56;5012957;28;20038;-76
2022/10/20 04:38:32;;;;;;;12.13;6.78;;;;;;;8.41;92.25;101269.38;5011481;28;20037;-76
2022/10/20 04:41:00;;;;;;;10.48;6.53;;;;;;;8.42;92.44;101266.78;5013200;28;20033;-76
2022/10/20 04:43:25;;;;;;;11.77;6.95;;;;;;;8.43;92.38;101272.81;5016069;28;20488;-76
2022/10/20 04:45:52;;;;;;;12.25;7.25;;;;;;;8.44;92.43;101277.13;5011633;28;20178;-76
2022/10/20 04:48:18;;;;;;;10.30;6.72;;;;;;;8.45;92.55;101271.06;5020092;28;20088;-76
2022/10/20 04:50:44;;;;;;;11.60;6.60;;;;;;;8.47;92.24;101261.53;4994449;28;20045;-76
2022/10/20 04:53:09;;;;;;;13.07;7.30;;;;;;;8.50;92.57;101251.16;5013984;28;20037;-76
2022/10/20 04:55:34;;;;;;;12.60;7.13;;;;;;;8.50;92.54;101253.75;5008018;28;20057;-76
2022/10/20 04:58:00;;;;;;;11.27;7.07;;;;;;;8.54;92.64;101252.84;5010989;28;20033;-76
2022/10/20 05:00:26;;;;;;;12.10;7.40;;;;;;;8.55;92.64;101244.19;5012784;28;20417;-76
2022/10/20 05:02:51;;;;;;;11.43;6.63;;;;;;;8.58;92.67;101235.53;5011080;28;20041;-76
2022/10/20 05:05:16;;;;;;;12.65;7.53;;;;;;;8.59;92.78;101226.88;5014316;28;20029;-77
2022/10/20 05:07:42;;;;;;;14.27;7.45;;;;;;;8.60;92.77;101234.63;5014096;28;20096;-77
2022/10/20 05:10:07;;;;;;;13.50;7.50;;;;;;;8.61;92.91;101227.72;5013982;28;20121;-75
2022/10/20 05:12:32;;;;;;;11.35;6.95;;;;;;;8.64;93.09;101230.25;5013750;28;20101;-76
2022/10/20 05:14:58;;;;;;;12.60;7.28;;;;;;;8.66;93.37;101220.72;4995192;28;20038;-76
2022/10/20 05:17:23;;;;;;;11.68;7.32;;;;;;;8.68;93.24;101218.13;5011662;28;20034;-76
2022/10/20 05:19:49;;;;;;;11.80;6.88;;;;;;;8.71;93.43;101212.91;4994524;28;20042;-76
2022/10/20 05:22:14;;;;;;;10.80;6.70;;;;;;;8.74;93.34;101210.25;5011863;28;20104;-76
2022/10/20 05:24:39;;;;;;;11.18;6.95;;;;;;;8.76;93.74;101218.88;5012538;28;20228;-76
2022/10/20 05:27:05;;;;;;;12.57;7.75;;;;;;;8.79;93.71;101221.44;5013655;28;20384;-76
2022/10/20 05:29:30;;;;;;;11.65;7.40;;;;;;;8.83;94.01;101228.31;5012243;28;20037;-76
2022/10/20 05:31:55;;;;;;;11.82;7.28;;;;;;;8.86;94.28;101222.22;5010045;28;20091;-76
2022/10/20 05:34:20;;;;;;;12.15;7.07;;;;;;;8.90;94.18;101196.22;4994915;28;20076;-76
2022/10/20 05:36:46;;;;;;;13.25;6.97;;;;;;;8.95;94.33;101189.22;5011604;28;20038;-76
2022/10/20 05:39:11;;;;;;;13.43;7.70;;;;;;;8.99;94.24;101171.03;5013461;28;20491;-76
2022/10/20 05:41:38;;;;;;;12.13;7.60;;;;;;;9.03;94.30;101178.75;5013086;28;20033;-76
2022/10/20 05:44:04;;;;;;;12.52;7.63;;;;;;;9.05;94.62;101209.88;5011730;28;20038;-76
2022/10/20 05:46:33;;;;;;;11.75;7.35;;;;;;;9.09;94.62;101240.09;5015127;28;20500;-76
2022/10/20 05:49:01;;;;;;;11.75;7.07;;;;;;;9.12;94.67;101234.88;5013427;28;21594;-76
2022/10/20 05:51:29;;;;;;;10.20;6.78;;;;;;;9.15;94.38;101220.97;5013059;28;20025;-76
2022/10/20 05:53:56;;;;;;;12.20;7.00;;;;;;;9.16;94.47;101225.28;4995491;28;20390;-76
2022/10/20 05:56:23;;;;;;;13.45;7.70;;;;;;;9.16;94.28;101215.78;5013387;28;20038;-76
2022/10/20 05:58:49;;;;;;;11.45;7.53;;;;;;;9.19;94.33;101217.47;5013849;28;20033;-76
2022/10/20 06:01:22;;;;;;;12.18;7.63;;;;;;;9.22;94.10;101223.47;5013001;28;20039;-76
2022/10/20 06:03:56;;;;;;;12.98;7.55;;;;;;;9.24;94.13;101218.28;5013486;28;20084;-76
2022/10/20 06:06:24;;;;;;;11.90;7.50;;;;;;;9.26;94.21;101216.50;5012896;28;20038;-76
2022/10/20 06:08:49;;;;;;;12.25;7.88;;;;;;;9.28;93.63;101212.16;5013902;28;20029;-76
2022/10/20 06:11:16;;;;;;;13.18;7.85;;;;;;;9.30;93.73;101214.72;5012004;28;20029;-76
2022/10/20 06:13:42;;;;;;;11.23;7.60;;;;;;;9.32;93.72;101218.16;5006863;28;20061;-76
2022/10/20 06:16:12;;;;;;;16.55;8.45;;;;;;;9.33;93.70;101220.72;5011418;28;20126;-76
2022/10/20 06:18:38;;;;;;;11.88;7.22;;;;;;;9.35;93.67;101225.91;5010783;28;20137;-76
2022/10/20 06:21:10;;;;;;;12.30;7.72;;;;;;;9.34;93.49;101219.84;5011637;28;20086;-76
2022/10/20 06:23:35;;;;;;;11.40;7.50;;;;;;;9.37;93.56;101219.81;5011936;28;20041;-76
2022/10/20 06:26:03;;;;;;;12.02;7.57;;;;;;;9.40;93.67;101217.16;5013089;28;20065;-76
2022/10/20 06:28:30;;;;;;;12.43;7.68;;;;;;;9.41;93.35;101213.69;5011827;28;20060;-76
2022/10/20 06:30:56;;;;;;;14.02;7.30;;;;;;;9.43;93.48;101205.88;5013552;28;20026;-77
2022/10/20 06:33:21;;;;;;;11.30;7.55;;;;;;;9.44;93.61;101219.72;5010916;28;20083;-77
2022/10/20 06:35:47;;;;;;;13.73;7.18;;;;;;;9.46;93.31;101224.00;5009796;28;20068;-77
2022/10/20 06:38:12;;;;;;;11.15;7.43;;;;;;;9.48;93.50;101234.38;5010755;28;20030;-77
2022/10/20 06:40:38;;;;;;;9.63;7.18;;;;;;;9.49;93.49;101247.34;5011680;28;20032;-77
2022/10/20 06:43:03;;;;;;;10.32;7.25;;;;;;;9.51;93.60;101240.38;5009536;28;20392;-77
2022/10/20 06:45:28;;;;;;;11.27;6.97;;;;;;;9.54;93.56;101219.56;5010187;28;20091;-76
2022/10/20 06:47:54;;;;;;;12.07;7.40;;;;;;;9.56;93.47;101220.38;5010900;28;20042;-76
2022/10/20 06:50:19;;;;;;;13.70;7.60;;;;;;;9.59;93.20;101216.88;5011133;28;20033;-76
2022/10/20 06:52:44;;;;;;;13.48;7.90;;;;;;;9.63;93.12;101207.28;5011343;28;20033;-76
2022/10/20 06:55:09;;;;;;;10.82;6.97;;;;;;;9.64;93.40;101198.63;5010983;28;20034;-76
2022/10/20 06:57:35;;;;;;;13.48;8.07;;;;;;;9.67;93.04;101203.78;5010881;28;20194;-76
2022/10/20 07:00:00;;;;;;;11.50;7.35;;;;;;;9.70;93.20;101211.53;4994481;28;20049;-76
2022/10/20 07:02:25;;;;;;;11.25;7.68;;;;;;;9.72;93.16;101209.75;5011099;28;20037;-76
2022/10/20 07:04:50;;;;;;;12.43;6.93;;;;;;;9.76;92.92;101203.63;5008890;28;20447;-76
2022/10/20 07:07:16;;;;;;;11.48;7.50;;;;;;;9.77;92.71;101200.13;5011292;28;20033;-77
2022/10/20 07:09:41;;;;;;;10.15;7.05;;;;;;;9.81;92.75;101190.56;5010101;28;20040;-76
2022/10/20 07:12:06;;;;;;;9.90;6.68;;;;;;;9.84;92.75;101186.16;5010371;28;20040;-77
2022/10/20 07:14:36;;;;;;;12.18;7.47;;;;;;;9.86;92.50;101194.78;5006268;28;20045;-76
2022/10/20 07:17:01;;;;;;;11.55;7.22;;;;;;;9.90;92.47;101190.41;4999402;28;20040;-77
2022/10/20 07:19:26;;;;;;;11.95;7.45;;;;;;;9.93;92.46;101194.66;4990882;28;20029;-76
2022/10/20 07:21:51;;;;;;;11.98;7.35;;;;;;;9.95;92.25;101187.72;5009918;28;20030;-76
2022/10/20 07:24:17;;;;;;;9.25;6.63;;;;;;;9.96;92.21;101192.91;5010514;28;20056;-76
2022/10/20 07:26:42;;;;;;;12.07;7.43;;;;;;;10.00;92.09;101198.91;5009676;28;20021;-76
2022/10/20 07:29:09;;;;;;;15.35;7.53;;;;;;;10.02;92.06;101194.53;5009862;28;20066;-76
2022/10/20 07:31:38;;;;;;;10.48;7.18;;;;;;;10.04;92.13;101203.16;5008970;28;20053;-76
2022/10/20 07:34:05;;;;;;;11.50;7.25;;;;;;;10.07;92.15;101200.50;5010544;28;20061;-76
2022/10/20 07:36:32;;;;;;;9.57;7.05;;;;;;;10.10;92.12;101200.44;5009308;28;20014;-76
2022/10/20 07:38:59;;;;;;;12.20;7.30;;;;;;;10.13;92.25;101200.38;5009204;28;20106;-76
2022/10/20 07:41:26;;;;;;;10.82;7.05;;;;;;;10.17;92.05;101204.66;5013462;28;20034;-76
2022/10/20 07:43:52;;;;;;;12.30;7.22;;;;;;;10.23;91.96;101192.44;5011514;28;20093;-76
2022/10/20 07:46:17;;;;;;;10.50;7.55;;;;;;;10.26;91.81;101201.03;5015390;28;20084;-76
2022/10/20 07:48:43;;;;;;;11.43;7.50;;;;;;;10.31;91.93;101206.13;5015224;28;20026;-76
2022/10/20 07:51:15;;;;;;;11.45;7.97;;;;;;;10.36;91.47;101195.63;5015828;28;20034;-76
2022/10/20 07:53:41;;;;;;;11.48;7.57;;;;;;;10.38;91.44;101186.97;5016346;28;20025;-77
2022/10/20 07:56:06;;;;;;;14.95;7.40;;;;;;;10.42;91.62;101193.78;5019092;28;20044;-76
2022/10/20 07:58:32;;;;;;;11.35;7.15;;;;;;;10.47;91.50;101199.78;5017882;28;20507;-77
2022/10/20 08:00:57;;;;;;;12.32;7.50;;;;;;;10.51;91.24;101194.53;5016543;28;20030;-76
2022/10/20 08:03:22;;;;;;;10.82;7.43;;;;;;;10.54;91.35;101181.47;5010659;28;20085;-76
2022/10/20 08:05:48;;;;;;;10.95;7.40;;;;;;;10.57;91.39;101186.59;5014161;28;20021;-76
2022/10/20 08:08:13;;;;;;;11.23;7.30;;;;;;;10.60;91.28;101195.19;4997511;28;20030;-76
2022/10/20 08:10:38;;;;;;;10.57;7.00;;;;;;;10.63;91.08;101191.66;4993983;28;20125;-76
2022/10/20 08:13:03;;;;;;;11.95;7.20;;;;;;;10.66;91.09;101199.41;5010671;28;20069;-76
2022/10/20 08:15:29;;;;;;;12.40;7.50;;;;;;;10.69;90.98;101194.16;5005510;28;20089;-76
2022/10/20 08:17:54;;;;;;;12.13;7.60;;;;;;;10.72;91.05;101194.09;5005339;28;20610;-77
2022/10/20 08:20:20;;;;;;;10.82;7.55;;;;;;;10.75;90.95;101191.44;5007691;28;20042;-78
2022/10/20 08:22:46;;;;;;;11.60;7.45;;;;;;;10.80;91.19;101180.91;4991892;28;20084;-76
2022/10/20 08:25:14;;;;;;;13.38;7.88;;;;;;;10.85;90.99;101183.41;5006408;28;20092;-76
2022/10/20 08:27:39;;;;;;;13.80;7.97;;;;;;;10.89;90.81;101188.50;5009630;28;20557;-76
2022/10/20 08:30:05;;;;;;;11.27;7.57;;;;;;;10.93;90.57;101181.53;5008637;28;20065;-77
2022/10/20 08:32:30;;;;;;;12.63;8.07;;;;;;;10.99;90.61;101188.34;5009162;28;20026;-76
2022/10/20 08:34:55;;;;;;;11.93;7.78;;;;;;;11.03;90.68;101172.59;5004465;28;20367;-76
2022/10/20 08:37:21;;;;;;;11.00;7.18;;;;;;;11.09;90.67;101169.00;5007749;28;20030;-76
2022/10/20 08:39:46;;;;;;;12.40;7.80;;;;;;;11.13;90.74;101154.16;5008382;28;20059;-76
2022/10/20 08:42:11;;;;;;;11.50;7.88;;;;;;;11.16;90.41;101170.59;5010936;28;20034;-76
2022/10/20 08:44:39;;;;;;;11.95;7.97;;;;;;;11.22;90.19;101172.19;5008977;28;20205;-76
2022/10/20 08:47:16;;;;;;;11.07;7.60;;;;;;;11.27;89.96;101162.53;5006751;28;20050;-77
2022/10/20 08:49:43;;;;;;;12.48;7.68;;;;;;;11.33;89.79;101171.94;5005118;28;20150;-76
2022/10/20 08:52:13;;;;;;;10.82;7.50;;;;;;;11.36;89.65;101170.13;5005005;28;20104;-77
2022/10/20 08:54:39;;;;;;;13.40;7.82;;;;;;;11.42;89.97;101166.50;5003407;28;20084;-76
2022/10/20 08:57:19;;;;;;;11.38;7.47;;;;;;;11.48;89.41;101166.38;5006129;28;20030;-76
2022/10/20 08:59:45;;;;;;;11.45;7.78;;;;;;;11.55;89.25;101169.66;5004455;28;20095;-77
2022/10/20 09:02:15;;;;;;;11.00;7.40;;;;;;;11.61;89.49;101172.13;5004475;28;20061;-77
2022/10/20 09:04:53;;;;;;;12.63;7.47;;;;;;;11.67;89.75;101156.31;5003098;28;20099;-77
2022/10/20 09:07:24;;;;;;;12.90;7.50;;;;;;;11.72;88.95;101147.53;5006669;28;20075;-77
2022/10/20 09:09:50;;;;;;;11.65;7.57;;;;;;;11.75;88.76;101150.91;5006136;28;20034;-77
2022/10/20 09:12:16;;;;;;;12.10;8.00;;;;;;;11.82;88.48;101143.78;5003567;28;20037;-76
2022/10/20 09:14:42;;;;;;;10.85;7.60;;;;;;;11.91;88.91;101138.34;5001238;28;20038;-76
2022/10/20 09:17:15;;;;;;;11.25;7.57;;;;;;;12.02;88.72;101139.84;5003398;28;20357;-76
2022/10/20 09:19:45;;;;;;;11.30;7.72;;;;;;;12.10;89.16;101143.09;4986247;28;20080;-76
2022/10/20 09:22:12;;;;;;;11.88;7.93;;;;;;;12.17;88.82;101151.63;4986262;28;20042;-76
2022/10/20 09:24:41;;;;;;;12.82;7.45;;;;;;;12.21;88.17;101154.09;5003440;28;20535;-77
2022/10/20 09:27:20;;;;;;;10.98;7.45;;;;;;;12.23;87.89;101154.91;4986220;28;20030;-77
2022/10/20 09:29:45;;;;;;;10.35;7.38;;;;;;;12.27;88.38;101140.00;5002653;28;20117;-77
2022/10/20 09:32:18;;;;;;;13.02;7.85;;;;;;;12.28;88.21;101141.72;5003590;28;20104;-76
2022/10/20 09:34:44;;;;;;;11.25;7.15;;;;;;;12.27;88.06;101137.41;5004916;28;20541;-76
2022/10/20 09:37:11;;;;;;;11.55;7.13;;;;;;;12.26;87.83;101143.53;5004000;28;20033;-77
2022/10/20 09:39:45;;;;;;;11.63;7.32;;;;;;;12.24;88.09;101146.19;5003182;28;20029;-77
2022/10/20 09:42:17;;;;;;;11.10;7.03;;;;;;;12.26;88.41;101149.63;5002533;28;20175;-77
2022/10/20 09:44:57;;;;;;;10.80;7.35;;;;;;;12.27;88.33;101155.66;5004476;28;20046;-77
2022/10/20 09:47:25;;;;;;;13.75;7.05;;;;;;;12.29;88.29;101151.28;5000583;28;20049;-77
2022/10/20 09:50:00;;;;;;;12.75;7.28;;;;;;;12.31;88.22;101152.09;5004698;28;20437;-77
2022/10/20 09:52:33;;;;;;;12.77;7.10;;;;;;;12.34;88.51;101144.19;5004172;28;20041;-77
2022/10/20 09:55:06;;;;;;;15.73;7.07;;;;;;;12.37;88.14;101141.47;5004287;28;20026;-77
2022/10/20 09:57:32;;;;;;;11.48;7.05;;;;;;;12.40;88.38;101137.91;5002924;28;20033;-77
2022/10/20 09:59:58;;;;;;;10.30;7.00;;;;;;;12.42;88.25;101134.34;5002025;28;20064;-77
2022/10/20 10:02:29;;;;;;;10.93;6.82;;;;;;;12.44;88.34;101121.28;5002825;28;20045;-77
2022/10/20 10:05:11;;;;;;;;;;;;;;;12.48;88.41;101122.88;5004035;28;20034;-77
2022/10/20 10:07:37;;;;;;;8.98;6.50;;;;;;;12.48;88.26;101125.50;5002629;28;20434;-76
2022/10/20 10:10:05;;;;;;;11.55;6.50;;;;;;;12.49;88.38;101139.41;5003738;28;20069;-77
2022/10/20 10:12:31;;;;;;;10.85;6.65;;;;;;;12.47;88.54;101126.38;5002624;28;20041;-77
2022/10/20 10:15:03;;;;;;;11.55;6.85;;;;;;;12.48;88.62;101135.09;5001556;28;20108;-77
2022/10/20 10:17:40;;;;;;;11.20;6.88;;;;;;;12.49;88.71;101145.47;5002787;28;20030;-76
2022/10/20 10:20:11;;;;;;;8.85;6.65;;;;;;;12.52;88.94;101149.78;5001828;28;20030;-77
2022/10/20 10:22:38;;;;;;;8.60;6.63;;;;;;;12.55;88.78;101160.97;5002438;28;20116;-77
2022/10/20 10:25:12;;;;;;;11.00;7.15;;;;;;;12.59;89.07;101151.28;4985196;28;20448;-77
2022/10/20 10:27:37;;;;;;;10.32;6.72;;;;;;;12.62;88.91;101150.34;5003368;28;20033;-77
2022/10/20 10:30:28;;;;;;;12.48;6.75;;;;;;;12.66;88.84;101144.13;4984876;28;20396;-76
2022/10/20 10:32:54;;;;;;;11.20;6.30;;;;;;;12.68;89.04;101137.97;5004104;28;20477;-77
2022/10/20 10:35:36;;;;;;;9.75;6.80;;;;;;;12.69;88.86;101126.63;5004298;28;20065;-77
2022/10/20 10:38:01;;;;;;;11.63;7.47;;;;;;;12.71;88.41;101123.97;5002859;28;20048;-77
2022/10/20 10:40:59;;;;;;;10.90;7.30;;;;;;;12.71;89.14;101131.78;5002667;28;20436;-77
2022/10/20 10:43:30;;;;;;;10.73;6.88;;;;;;;12.69;89.14;101123.16;5003969;28;20067;-76
2022/10/20 10:46:18;;;;;;;10.30;6.82;;;;;;;12.68;89.11;101129.28;5002560;28;20044;-76
2022/10/20 10:49:09;;;;;;;10.52;7.13;;;;;;;12.68;89.14;101134.50;4999960;28;20629;-77
2022/10/20 10:52:05;;;;;;;9.88;6.78;;;;;;;12.67;89.42;101122.34;5004043;28;20029;-77
2022/10/20 10:54:55;;;;;;;10.13;7.00;;;;;;;12.66;89.75;101111.06;5003305;28;20052;-77
2022/10/20 10:57:27;;;;;;;11.50;7.38;;;;;;;12.66;90.39;101115.41;5002992;28;20071;-76
2022/10/20 10:59:52;;;;;;;10.00;6.20;;;;;;;12.66;90.25;101110.19;5002091;28;20029;-76
2022/10/20 11:02:55;;;;;;;12.38;7.70;;;;;;;12.63;90.61;101111.16;5001795;28;20080;-76
2022/10/20 11:05:30;;;;;;;11.60;6.88;;;;;;;12.62;91.31;101109.44;5002137;28;20040;-77
2022/10/20 11:08:20;;;;;;;14.55;7.22;;;;;;;12.61;91.42;101112.94;5002163;28;20380;-76
2022/10/20 11:11:15;;;;;;;16.58;7.28;;;;;;;12.58;91.86;101113.91;5002246;28;20049;-76
2022/10/20 11:13:54;;;;;;;11.90;7.05;;;;;;;12.55;92.26;101108.78;5004316;28;20029;-76
2022/10/20 11:16:30;;;;;;;16.20;7.38;;;;;;;12.52;92.74;101114.06;5003985;28;20025;-77
2022/10/20 11:19:02;;;;;;;11.88;7.38;;;;;;;12.50;93.06;101105.44;5003956;28;20034;-78
2022/10/20 11:21:44;;;;;;;15.10;7.55;;;;;;;12.50;93.35;101099.38;5002943;28;20053;-77
2022/10/20 11:24:16;;;;;;;12.13;7.18;;;;;;;12.50;93.63;101086.31;5005083;28;20084;-77
2022/10/20 11:26:49;;;;;;;11.23;7.35;;;;;;;12.49;93.75;101088.06;5000794;28;20034;-78
2022/10/20 11:29:41;;;;;;;13.25;8.10;;;;;;;12.48;93.82;101086.34;5001266;28;20420;-77
2022/10/20 11:32:12;;;;;;;13.65;7.55;;;;;;;12.47;94.31;101089.84;5004209;28;20026;-77